x

Georgian Bay (45137) Wave Buoy

12:00am - Sat 27th Aug 2016 All times are CDT. -5 hours from GMT.

  • Sig Wave height 1.6ft
  • Peak Period 3s
  • Wind
    11mph, 13mph gusts
  • Sea Temp 69°f
  • Air Temp 68°f
  • Sea Pressure 1021.3mb
  • Georgian Bay
  • Georgian Bay

More Historic Weather Station data

Upgrade to MSW Pro to gain access to the past 30 days of data for over 8000 Wavebouys and Weather Stations around the globe.

Join Pro

Comparision Forecast

View Surf forecast
   
Sat 08/27 12:00am 1.6ft 3s 11 13 mph 1021.3mb 69f 68f
Fri 08/26 11:00pm 1.6ft 4s 13 16 mph 1021.3mb 69f 68f
10:00pm 2ft 4s 13 16 mph 1020.7mb 69f 68f
9:00pm 2.5ft 4s 18 20 mph 1020.6mb 69f 68f
8:00pm 2ft 4s 20 22 mph 1019.7mb 69f 69f
7:00pm 2ft 4s 18 20 mph 1019.2mb 70f 70f
6:00pm 2.5ft 4s 13 16 mph 1019mb 70f 70f
5:00pm 2.5ft 4s 16 18 mph 1019.1mb 70f 69f
4:00pm 2.5ft 4s 16 18 mph 1018.9mb 70f 69f
3:00pm 2.5ft 4s 16 18 mph 1018.9mb 70f 69f
2:00pm 2ft 3s 18 20 mph 1018.6mb 70f 69f
1:00pm 1.3ft 3s 16 18 mph 1018.4mb 70f 69f
12:00pm 1ft 3s 16 18 mph 1018.4mb 70f 69f
11:00am 0.7ft 3s 9 11 mph 1018.6mb 70f 68f
10:00am 1ft 2s 9 11 mph 1018.4mb 69f 68f
9:00am 1ft 3s 9 11 mph 1017.8mb 69f 68f
8:00am 1ft 2s 11 13 mph 1017.1mb 69f 68f
7:00am 0.7ft 3s 11 13 mph 1016.5mb 69f 69f
6:00am 1ft 3s 7 9 mph 1016.2mb 69f 68f
5:00am 1ft 3s 9 11 mph 1015.9mb 69f 69f
4:00am 1ft 3s 7 9 mph 1015.3mb 69f 69f
3:00am 1.3ft 3s 11 13 mph 1015.1mb 69f 68f
2:00am 1.3ft 3s 13
mph
1014.8mb 69f 68f
1:00am 1.3ft 3s 13 16 mph 1014.5mb 69f 68f
12:00am 1.3ft 3s 13 16 mph 1014.4mb 69f 69f
Thu 08/25 11:00pm 1.3ft 3s 13 16 mph 1013.9mb 69f 70f
10:00pm 1.3ft 3s 16 18 mph 1013.6mb 69f 70f
9:00pm 1.3ft 3s 16 18 mph 1013.4mb 70f 70f
8:00pm 1.3ft 3s 13 18 mph 1013.2mb 70f 70f
7:00pm 1.3ft 3s 13
mph
1012.9mb 70f 70f
6:00pm 1ft 3s 13 18 mph 1012.7mb 70f 71f
5:00pm  -   -  13
mph
1012.6mb - 70f
4:00pm 1ft 3s 13 16 mph 1012.6mb 70f 70f
3:00pm 1ft 3s 9 11 mph 1012.9mb 70f 70f
2:00pm 0.7ft 2s 11 13 mph 1013mb 70f 70f
1:00pm 1ft 3s 9
mph
1012.7mb 70f 69f
12:00pm 1ft 3s 9
mph
1013mb 69f 68f
11:00am 1ft 3s 11
mph
1013.3mb 69f 68f
10:00am 1.3ft 3s 11 13 mph 1013.2mb 69f 68f
9:00am 1.6ft 3s 13
mph
1013mb 69f 67f
8:00am 1.6ft 3s 13 16 mph 1012.8mb 69f 68f
7:00am 1.6ft 3s 13 16 mph 1012.5mb 69f 68f
6:00am 1.6ft 4s 13 18 mph 1012.1mb 69f 69f
5:00am 2ft 4s 13 16 mph 1011.6mb 69f 69f
4:00am 2.5ft 4s 13 16 mph 1011.1mb 69f 69f
3:00am 2.5ft 4s 13 16 mph 1010.4mb 69f 70f
2:00am 2.5ft 4s 13 16 mph 1010.6mb 69f 71f
1:00am 3ft 4s 13 16 mph 1010.7mb 69f 71f
12:00am 3ft 5s 18 20 mph 1010.8mb 69f 71f
Wed 08/24 11:00pm 3.5ft 4s 18 22 mph 1010.8mb 69f 71f
10:00pm 3.5ft 4s 18 22 mph 1011.7mb 69f 71f
9:00pm 3.5ft 5s 20 25 mph 1012mb 69f 72f
8:00pm 3.5ft 4s 18 20 mph 1012.3mb 69f 73f
7:00pm 2.5ft 4s 18 22 mph 1012.2mb 69f 73f
6:00pm 3ft 4s 13 16 mph 1012.8mb 69f 72f
5:00pm 2.5ft 4s 16 18 mph 1012.7mb 69f 72f
4:00pm 2.5ft 4s 18 20 mph 1013.3mb 69f 72f
3:00pm 2.5ft 4s 16 20 mph 1013.9mb 69f 73f
2:00pm 2.5ft 4s 16 18 mph 1015.1mb 69f 73f
1:00pm 2ft 4s 13 16 mph 1016.1mb 69f 72f
12:00pm 2ft 4s 13 16 mph 1017.1mb 69f 71f
11:00am 2ft 4s 16 18 mph 1017.8mb 69f 70f
10:00am 2ft 4s 16 18 mph 1018.2mb 69f 70f
9:00am 2ft 4s 13 16 mph 1018.9mb 69f 69f
8:00am 2ft 4s 16 18 mph 1019.5mb 69f 69f
7:00am 2ft 3s 13 18 mph 1019.8mb 69f 69f
6:00am 1.6ft 4s 13 16 mph 1020.1mb 69f 69f
5:00am 1.6ft 4s 13 16 mph 1020.2mb 69f 69f
4:00am 2ft 4s 13 16 mph 1020mb 69f 69f
3:00am 2ft 4s 13 16 mph 1020mb 69f 69f
2:00am 2ft 4s 13 16 mph 1019.5mb 69f 69f
1:00am 2.5ft 4s 13 16 mph 1019.4mb 69f 70f
12:00am 2.5ft 4s 13 16 mph 1019.8mb 69f 70f
Tue 08/23 11:00pm 2.5ft 4s 13 16 mph 1020.3mb 69f 70f
10:00pm 2.5ft 4s 16 18 mph 1020.7mb 69f 71f
9:00pm 2.5ft 4s 16 18 mph 1020.7mb 69f 71f
8:00pm 3ft 4s 16 20 mph 1020.8mb 69f 71f
7:00pm 2.5ft 4s 16 20 mph 1020.7mb 69f 71f
6:00pm 3ft 5s 11 13 mph 1020.8mb 69f 71f
5:00pm 3.5ft 5s 18 20 mph 1020.6mb 69f 71f
4:00pm 3ft 4s 18 20 mph 1020.8mb 69f 71f
3:00pm 3ft 4s 16 20 mph 1020.8mb 69f 71f
2:00pm 3ft 4s 18 22 mph 1021mb 69f 71f
1:00pm 3ft 4s 18 22 mph 1021.3mb 69f 71f
12:00pm 2.5ft 4s 16 18 mph 1021.3mb 69f 70f
11:00am 2.5ft 4s 18 20 mph 1021.4mb 69f 70f
10:00am 2.5ft 4s 18 22 mph 1021.4mb 69f 69f
9:00am 2.5ft 4s 18 22 mph 1021.5mb 69f 69f
8:00am 2.5ft 4s 18 22 mph 1020.9mb 69f 69f
7:00am 2.5ft 4s 16 20 mph 1021mb 69f 69f